sensor_id;sensor_type;location;lat;lon;timestamp;P1;durP1;ratioP1;P2;durP2;ratioP2
70588;SDS011;58152;49.202;18.744;2022-11-18T00:00:22;16.25;;;13.25;;
70588;SDS011;58152;49.202;18.744;2022-11-18T00:02:48;14.68;;;11.40;;
70588;SDS011;58152;49.202;18.744;2022-11-18T00:05:13;17.30;;;13.07;;
70588;SDS011;58152;49.202;18.744;2022-11-18T00:07:38;14.70;;;11.45;;
70588;SDS011;58152;49.202;18.744;2022-11-18T00:10:04;15.55;;;11.60;;
70588;SDS011;58152;49.202;18.744;2022-11-18T00:12:30;14.45;;;11.20;;
70588;SDS011;58152;49.202;18.744;2022-11-18T00:15:14;13.85;;;10.73;;
70588;SDS011;58152;49.202;18.744;2022-11-18T00:17:39;13.20;;;11.15;;
70588;SDS011;58152;49.202;18.744;2022-11-18T00:20:05;14.45;;;11.30;;
70588;SDS011;58152;49.202;18.744;2022-11-18T00:22:31;14.10;;;10.82;;
70588;SDS011;58152;49.202;18.744;2022-11-18T00:24:56;11.90;;;10.38;;
70588;SDS011;58152;49.202;18.744;2022-11-18T00:27:22;14.93;;;11.60;;
70588;SDS011;58152;49.202;18.744;2022-11-18T00:29:47;13.80;;;11.27;;
70588;SDS011;58152;49.202;18.744;2022-11-18T00:32:13;13.57;;;10.55;;
70588;SDS011;58152;49.202;18.744;2022-11-18T00:34:38;12.32;;;10.52;;
70588;SDS011;58152;49.202;18.744;2022-11-18T00:37:04;13.35;;;11.23;;
70588;SDS011;58152;49.202;18.744;2022-11-18T00:39:29;15.52;;;11.52;;
70588;SDS011;58152;49.202;18.744;2022-11-18T00:41:55;14.70;;;10.25;;
70588;SDS011;58152;49.202;18.744;2022-11-18T00:44:39;13.38;;;10.88;;
70588;SDS011;58152;49.202;18.744;2022-11-18T00:47:04;13.50;;;11.15;;
70588;SDS011;58152;49.202;18.744;2022-11-18T00:49:30;13.88;;;11.63;;
70588;SDS011;58152;49.202;18.744;2022-11-18T00:51:55;15.73;;;12.35;;
70588;SDS011;58152;49.202;18.744;2022-11-18T00:54:21;14.80;;;10.25;;
70588;SDS011;58152;49.202;18.744;2022-11-18T00:59:38;14.35;;;11.85;;
70588;SDS011;58152;49.202;18.744;2022-11-18T01:02:03;16.50;;;11.38;;
70588;SDS011;58152;49.202;18.744;2022-11-18T01:04:29;14.73;;;10.27;;
70588;SDS011;58152;49.202;18.744;2022-11-18T01:06:54;13.50;;;10.90;;
70588;SDS011;58152;49.202;18.744;2022-11-18T01:09:20;16.20;;;11.80;;
70588;SDS011;58152;49.202;18.744;2022-11-18T01:11:45;14.50;;;11.10;;
70588;SDS011;58152;49.202;18.744;2022-11-18T01:14:29;14.57;;;11.57;;
70588;SDS011;58152;49.202;18.744;2022-11-18T01:16:55;13.25;;;11.18;;
70588;SDS011;58152;49.202;18.744;2022-11-18T01:19:21;15.00;;;11.82;;
70588;SDS011;58152;49.202;18.744;2022-11-18T01:21:47;13.95;;;10.85;;
70588;SDS011;58152;49.202;18.744;2022-11-18T01:24:13;12.43;;;10.27;;
70588;SDS011;58152;49.202;18.744;2022-11-18T01:26:39;12.20;;;10.27;;
70588;SDS011;58152;49.202;18.744;2022-11-18T01:29:04;14.32;;;11.38;;
70588;SDS011;58152;49.202;18.744;2022-11-18T01:31:30;14.95;;;11.20;;
70588;SDS011;58152;49.202;18.744;2022-11-18T01:33:55;14.85;;;11.10;;
70588;SDS011;58152;49.202;18.744;2022-11-18T01:36:24;13.55;;;10.35;;
70588;SDS011;58152;49.202;18.744;2022-11-18T01:38:52;15.07;;;11.40;;
70588;SDS011;58152;49.202;18.744;2022-11-18T01:41:20;12.68;;;10.98;;
70588;SDS011;58152;49.202;18.744;2022-11-18T01:46:26;13.63;;;10.90;;
70588;SDS011;58152;49.202;18.744;2022-11-18T01:49:05;14.85;;;11.05;;
70588;SDS011;58152;49.202;18.744;2022-11-18T01:51:38;13.30;;;10.80;;
70588;SDS011;58152;49.202;18.744;2022-11-18T01:54:22;13.27;;;9.75;;
70588;SDS011;58152;49.202;18.744;2022-11-18T01:56:54;11.88;;;9.50;;
70588;SDS011;58152;49.202;18.744;2022-11-18T01:59:23;12.43;;;9.77;;
70588;SDS011;58152;49.202;18.744;2022-11-18T02:01:53;10.80;;;9.00;;
70588;SDS011;58152;49.202;18.744;2022-11-18T02:04:19;12.27;;;9.77;;
70588;SDS011;58152;49.202;18.744;2022-11-18T02:06:45;11.73;;;9.82;;
70588;SDS011;58152;49.202;18.744;2022-11-18T02:09:12;10.95;;;9.45;;
70588;SDS011;58152;49.202;18.744;2022-11-18T02:11:40;10.75;;;8.63;;
70588;SDS011;58152;49.202;18.744;2022-11-18T02:27:32;10.02;;;8.60;;
70588;SDS011;58152;49.202;18.744;2022-11-18T02:30:11;11.13;;;9.18;;
70588;SDS011;58152;49.202;18.744;2022-11-18T02:32:45;11.27;;;9.50;;
70588;SDS011;58152;49.202;18.744;2022-11-18T02:35:19;10.02;;;8.57;;
70588;SDS011;58152;49.202;18.744;2022-11-18T02:37:59;10.27;;;8.60;;
70588;SDS011;58152;49.202;18.744;2022-11-18T02:40:38;9.68;;;8.05;;
70588;SDS011;58152;49.202;18.744;2022-11-18T02:43:19;10.57;;;8.73;;
70588;SDS011;58152;49.202;18.744;2022-11-18T02:45:49;9.93;;;8.90;;
70588;SDS011;58152;49.202;18.744;2022-11-18T02:48:18;11.93;;;9.50;;
70588;SDS011;58152;49.202;18.744;2022-11-18T02:50:48;12.18;;;9.07;;
70588;SDS011;58152;49.202;18.744;2022-11-18T02:53:18;11.70;;;8.52;;
70588;SDS011;58152;49.202;18.744;2022-11-18T02:55:44;9.95;;;8.82;;
70588;SDS011;58152;49.202;18.744;2022-11-18T02:58:12;11.70;;;8.80;;
70588;SDS011;58152;49.202;18.744;2022-11-18T03:00:41;14.85;;;9.90;;
70588;SDS011;58152;49.202;18.744;2022-11-18T03:03:26;13.15;;;9.10;;
70588;SDS011;58152;49.202;18.744;2022-11-18T03:14:36;12.82;;;9.50;;
70588;SDS011;58152;49.202;18.744;2022-11-18T03:17:12;12.13;;;9.40;;
70588;SDS011;58152;49.202;18.744;2022-11-18T03:22:37;15.25;;;9.15;;
70588;SDS011;58152;49.202;18.744;2022-11-18T03:25:11;14.35;;;9.18;;
70588;SDS011;58152;49.202;18.744;2022-11-18T03:27:41;13.82;;;9.55;;
70588;SDS011;58152;49.202;18.744;2022-11-18T03:30:09;13.23;;;9.65;;
70588;SDS011;58152;49.202;18.744;2022-11-18T03:32:40;12.23;;;9.60;;
70588;SDS011;58152;49.202;18.744;2022-11-18T03:35:17;16.58;;;10.68;;
70588;SDS011;58152;49.202;18.744;2022-11-18T03:37:48;14.23;;;10.18;;
70588;SDS011;58152;49.202;18.744;2022-11-18T03:40:21;15.20;;;10.90;;
70588;SDS011;58152;49.202;18.744;2022-11-18T03:42:55;18.13;;;10.02;;
70588;SDS011;58152;49.202;18.744;2022-11-18T03:45:33;14.98;;;10.18;;
70588;SDS011;58152;49.202;18.744;2022-11-18T03:48:03;16.35;;;10.68;;
70588;SDS011;58152;49.202;18.744;2022-11-18T03:50:45;13.23;;;9.38;;
70588;SDS011;58152;49.202;18.744;2022-11-18T03:53:22;16.77;;;10.23;;
70588;SDS011;58152;49.202;18.744;2022-11-18T03:55:53;16.52;;;10.77;;
70588;SDS011;58152;49.202;18.744;2022-11-18T03:58:48;17.42;;;10.70;;
70588;SDS011;58152;49.202;18.744;2022-11-18T04:01:16;17.92;;;11.30;;
70588;SDS011;58152;49.202;18.744;2022-11-18T04:03:46;16.05;;;10.20;;
70588;SDS011;58152;49.202;18.744;2022-11-18T04:06:29;17.80;;;10.75;;
70588;SDS011;58152;49.202;18.744;2022-11-18T04:08:59;15.35;;;9.25;;
70588;SDS011;58152;49.202;18.744;2022-11-18T04:11:31;18.00;;;11.20;;
70588;SDS011;58152;49.202;18.744;2022-11-18T04:14:19;14.15;;;8.57;;
70588;SDS011;58152;49.202;18.744;2022-11-18T04:16:48;13.98;;;10.05;;
70588;SDS011;58152;49.202;18.744;2022-11-18T04:19:17;22.52;;;13.40;;
70588;SDS011;58152;49.202;18.744;2022-11-18T04:21:43;14.68;;;10.15;;
70588;SDS011;58152;49.202;18.744;2022-11-18T04:24:08;17.27;;;10.43;;
70588;SDS011;58152;49.202;18.744;2022-11-18T04:26:34;19.05;;;11.60;;
70588;SDS011;58152;49.202;18.744;2022-11-18T04:29:02;20.30;;;11.90;;
70588;SDS011;58152;49.202;18.744;2022-11-18T04:31:27;19.48;;;10.68;;
70588;SDS011;58152;49.202;18.744;2022-11-18T04:33:53;18.35;;;10.90;;
70588;SDS011;58152;49.202;18.744;2022-11-18T04:36:18;16.42;;;10.65;;
70588;SDS011;58152;49.202;18.744;2022-11-18T04:38:44;15.75;;;10.57;;
70588;SDS011;58152;49.202;18.744;2022-11-18T04:41:10;19.13;;;11.40;;
70588;SDS011;58152;49.202;18.744;2022-11-18T04:43:36;22.73;;;12.55;;
70588;SDS011;58152;49.202;18.744;2022-11-18T04:46:01;19.42;;;11.73;;
70588;SDS011;58152;49.202;18.744;2022-11-18T04:48:27;18.35;;;10.95;;
70588;SDS011;58152;49.202;18.744;2022-11-18T04:50:55;17.45;;;10.65;;
70588;SDS011;58152;49.202;18.744;2022-11-18T04:53:21;19.65;;;11.43;;
70588;SDS011;58152;49.202;18.744;2022-11-18T04:55:46;24.83;;;12.40;;
70588;SDS011;58152;49.202;18.744;2022-11-18T04:58:12;17.80;;;11.95;;
70588;SDS011;58152;49.202;18.744;2022-11-18T05:00:37;19.35;;;12.45;;
70588;SDS011;58152;49.202;18.744;2022-11-18T05:03:03;19.45;;;11.60;;
70588;SDS011;58152;49.202;18.744;2022-11-18T05:05:28;20.58;;;11.57;;
70588;SDS011;58152;49.202;18.744;2022-11-18T05:07:54;26.98;;;11.93;;
70588;SDS011;58152;49.202;18.744;2022-11-18T05:10:19;19.30;;;11.02;;
70588;SDS011;58152;49.202;18.744;2022-11-18T05:12:45;18.95;;;12.30;;
70588;SDS011;58152;49.202;18.744;2022-11-18T05:15:13;24.58;;;12.52;;
70588;SDS011;58152;49.202;18.744;2022-11-18T05:17:40;20.40;;;12.27;;
70588;SDS011;58152;49.202;18.744;2022-11-18T05:20:06;21.33;;;13.27;;
70588;SDS011;58152;49.202;18.744;2022-11-18T05:22:31;22.00;;;13.00;;
70588;SDS011;58152;49.202;18.744;2022-11-18T05:24:57;27.10;;;13.65;;
70588;SDS011;58152;49.202;18.744;2022-11-18T05:27:22;21.52;;;12.95;;
70588;SDS011;58152;49.202;18.744;2022-11-18T05:29:48;26.15;;;13.80;;
70588;SDS011;58152;49.202;18.744;2022-11-18T05:32:13;22.35;;;13.10;;
70588;SDS011;58152;49.202;18.744;2022-11-18T05:34:40;20.05;;;12.85;;
70588;SDS011;58152;49.202;18.744;2022-11-18T05:37:06;22.40;;;12.85;;
70588;SDS011;58152;49.202;18.744;2022-11-18T05:39:32;23.70;;;13.77;;
70588;SDS011;58152;49.202;18.744;2022-11-18T05:41:58;21.00;;;12.55;;
70588;SDS011;58152;49.202;18.744;2022-11-18T05:44:42;27.17;;;14.18;;
70588;SDS011;58152;49.202;18.744;2022-11-18T05:47:08;25.75;;;13.55;;
70588;SDS011;58152;49.202;18.744;2022-11-18T05:49:34;23.40;;;13.13;;
70588;SDS011;58152;49.202;18.744;2022-11-18T05:51:59;25.20;;;14.10;;
70588;SDS011;58152;49.202;18.744;2022-11-18T05:54:25;25.80;;;13.32;;
70588;SDS011;58152;49.202;18.744;2022-11-18T05:56:51;27.30;;;14.48;;
70588;SDS011;58152;49.202;18.744;2022-11-18T05:59:17;22.23;;;12.55;;
70588;SDS011;58152;49.202;18.744;2022-11-18T06:01:51;23.48;;;13.05;;
70588;SDS011;58152;49.202;18.744;2022-11-18T06:04:25;21.10;;;12.40;;
70588;SDS011;58152;49.202;18.744;2022-11-18T06:07:09;21.52;;;13.05;;
70588;SDS011;58152;49.202;18.744;2022-11-18T06:09:39;23.35;;;13.18;;
70588;SDS011;58152;49.202;18.744;2022-11-18T06:12:12;23.98;;;13.40;;
70588;SDS011;58152;49.202;18.744;2022-11-18T06:14:48;23.98;;;13.70;;
70588;SDS011;58152;49.202;18.744;2022-11-18T06:17:46;17.88;;;11.02;;
70588;SDS011;58152;49.202;18.744;2022-11-18T06:20:18;23.45;;;13.90;;
70588;SDS011;58152;49.202;18.744;2022-11-18T06:22:48;23.67;;;13.32;;
70588;SDS011;58152;49.202;18.744;2022-11-18T06:25:17;23.50;;;13.02;;
70588;SDS011;58152;49.202;18.744;2022-11-18T06:27:43;22.30;;;13.88;;
70588;SDS011;58152;49.202;18.744;2022-11-18T06:30:10;24.48;;;13.60;;
70588;SDS011;58152;49.202;18.744;2022-11-18T06:32:39;23.63;;;14.00;;
70588;SDS011;58152;49.202;18.744;2022-11-18T06:35:05;20.02;;;11.93;;
70588;SDS011;58152;49.202;18.744;2022-11-18T06:37:31;22.85;;;13.30;;
70588;SDS011;58152;49.202;18.744;2022-11-18T06:40:04;20.48;;;13.30;;
70588;SDS011;58152;49.202;18.744;2022-11-18T06:42:34;21.98;;;12.45;;
70588;SDS011;58152;49.202;18.744;2022-11-18T06:45:18;17.95;;;12.27;;
70588;SDS011;58152;49.202;18.744;2022-11-18T06:47:43;21.65;;;13.20;;
70588;SDS011;58152;49.202;18.744;2022-11-18T06:50:09;23.25;;;13.25;;
70588;SDS011;58152;49.202;18.744;2022-11-18T06:52:35;21.58;;;12.57;;
70588;SDS011;58152;49.202;18.744;2022-11-18T06:55:00;19.83;;;12.05;;
70588;SDS011;58152;49.202;18.744;2022-11-18T06:57:26;19.77;;;12.38;;
70588;SDS011;58152;49.202;18.744;2022-11-18T06:59:51;21.83;;;13.30;;
70588;SDS011;58152;49.202;18.744;2022-11-18T07:02:23;25.10;;;14.10;;
70588;SDS011;58152;49.202;18.744;2022-11-18T07:05:16;19.05;;;11.63;;
70588;SDS011;58152;49.202;18.744;2022-11-18T07:07:41;26.00;;;13.10;;
70588;SDS011;58152;49.202;18.744;2022-11-18T07:10:07;21.70;;;12.52;;
70588;SDS011;58152;49.202;18.744;2022-11-18T07:12:36;24.17;;;12.95;;
70588;SDS011;58152;49.202;18.744;2022-11-18T07:15:01;20.73;;;13.07;;
70588;SDS011;58152;49.202;18.744;2022-11-18T07:17:28;22.73;;;13.55;;
70588;SDS011;58152;49.202;18.744;2022-11-18T07:19:57;25.20;;;14.07;;
70588;SDS011;58152;49.202;18.744;2022-11-18T07:22:22;24.80;;;13.38;;
70588;SDS011;58152;49.202;18.744;2022-11-18T07:24:48;21.65;;;13.30;;
70588;SDS011;58152;49.202;18.744;2022-11-18T07:27:13;26.48;;;14.35;;
70588;SDS011;58152;49.202;18.744;2022-11-18T07:29:39;23.38;;;14.65;;
70588;SDS011;58152;49.202;18.744;2022-11-18T07:32:05;25.13;;;14.48;;
70588;SDS011;58152;49.202;18.744;2022-11-18T07:34:30;20.90;;;12.93;;
70588;SDS011;58152;49.202;18.744;2022-11-18T07:36:56;21.85;;;12.65;;
70588;SDS011;58152;49.202;18.744;2022-11-18T07:39:21;25.65;;;14.02;;
70588;SDS011;58152;49.202;18.744;2022-11-18T07:41:47;24.50;;;14.15;;
70588;SDS011;58152;49.202;18.744;2022-11-18T07:44:13;24.83;;;14.55;;
70588;SDS011;58152;49.202;18.744;2022-11-18T07:46:38;25.98;;;14.90;;
70588;SDS011;58152;49.202;18.744;2022-11-18T07:49:05;21.90;;;14.52;;
70588;SDS011;58152;49.202;18.744;2022-11-18T07:51:34;22.45;;;13.40;;
70588;SDS011;58152;49.202;18.744;2022-11-18T07:54:04;20.33;;;13.23;;
70588;SDS011;58152;49.202;18.744;2022-11-18T07:56:31;25.95;;;15.68;;
70588;SDS011;58152;49.202;18.744;2022-11-18T07:58:57;22.98;;;14.25;;
70588;SDS011;58152;49.202;18.744;2022-11-18T08:01:23;23.23;;;14.38;;
70588;SDS011;58152;49.202;18.744;2022-11-18T08:03:53;24.48;;;14.77;;
70588;SDS011;58152;49.202;18.744;2022-11-18T08:06:18;25.77;;;15.23;;
70588;SDS011;58152;49.202;18.744;2022-11-18T08:08:44;27.60;;;15.27;;
70588;SDS011;58152;49.202;18.744;2022-11-18T08:11:12;21.48;;;13.48;;
70588;SDS011;58152;49.202;18.744;2022-11-18T08:13:43;22.13;;;13.68;;
70588;SDS011;58152;49.202;18.744;2022-11-18T08:16:13;20.92;;;14.52;;
70588;SDS011;58152;49.202;18.744;2022-11-18T08:18:40;22.40;;;14.02;;
70588;SDS011;58152;49.202;18.744;2022-11-18T08:21:06;22.38;;;14.40;;
70588;SDS011;58152;49.202;18.744;2022-11-18T08:23:32;23.73;;;14.90;;
70588;SDS011;58152;49.202;18.744;2022-11-18T08:26:01;20.45;;;13.60;;
70588;SDS011;58152;49.202;18.744;2022-11-18T08:28:29;22.27;;;14.77;;
70588;SDS011;58152;49.202;18.744;2022-11-18T08:30:55;23.67;;;15.95;;
70588;SDS011;58152;49.202;18.744;2022-11-18T08:33:21;23.55;;;15.88;;
70588;SDS011;58152;49.202;18.744;2022-11-18T08:35:46;26.58;;;16.10;;
70588;SDS011;58152;49.202;18.744;2022-11-18T08:38:12;24.45;;;16.48;;
70588;SDS011;58152;49.202;18.744;2022-11-18T08:40:38;26.30;;;18.20;;
70588;SDS011;58152;49.202;18.744;2022-11-18T08:43:10;22.67;;;15.90;;
70588;SDS011;58152;49.202;18.744;2022-11-18T08:45:36;29.05;;;18.77;;
70588;SDS011;58152;49.202;18.744;2022-11-18T08:48:03;25.52;;;17.23;;
70588;SDS011;58152;49.202;18.744;2022-11-18T08:50:29;23.17;;;16.30;;
70588;SDS011;58152;49.202;18.744;2022-11-18T08:52:54;22.17;;;15.32;;
70588;SDS011;58152;49.202;18.744;2022-11-18T08:55:20;21.38;;;15.20;;
70588;SDS011;58152;49.202;18.744;2022-11-18T08:57:45;22.25;;;15.82;;
70588;SDS011;58152;49.202;18.744;2022-11-18T09:00:12;23.10;;;15.40;;
70588;SDS011;58152;49.202;18.744;2022-11-18T09:02:38;20.45;;;14.80;;
70588;SDS011;58152;49.202;18.744;2022-11-18T09:05:04;19.00;;;13.80;;
70588;SDS011;58152;49.202;18.744;2022-11-18T09:07:30;19.55;;;13.90;;
70588;SDS011;58152;49.202;18.744;2022-11-18T09:09:55;21.48;;;15.05;;
70588;SDS011;58152;49.202;18.744;2022-11-18T09:12:21;22.42;;;15.07;;
70588;SDS011;58152;49.202;18.744;2022-11-18T09:14:46;19.23;;;13.45;;
70588;SDS011;58152;49.202;18.744;2022-11-18T09:17:14;17.95;;;12.80;;
70588;SDS011;58152;49.202;18.744;2022-11-18T09:19:42;18.48;;;12.15;;
70588;SDS011;58152;49.202;18.744;2022-11-18T09:22:08;19.70;;;13.30;;
70588;SDS011;58152;49.202;18.744;2022-11-18T09:24:33;20.02;;;13.32;;
70588;SDS011;58152;49.202;18.744;2022-11-18T09:27:03;18.15;;;12.73;;
70588;SDS011;58152;49.202;18.744;2022-11-18T09:29:29;15.70;;;10.85;;
70588;SDS011;58152;49.202;18.744;2022-11-18T09:31:55;12.98;;;10.10;;
70588;SDS011;58152;49.202;18.744;2022-11-18T09:34:21;13.32;;;10.20;;
70588;SDS011;58152;49.202;18.744;2022-11-18T09:36:47;15.55;;;11.35;;
70588;SDS011;58152;49.202;18.744;2022-11-18T09:39:16;12.35;;;10.90;;
70588;SDS011;58152;49.202;18.744;2022-11-18T09:41:59;13.73;;;10.77;;
70588;SDS011;58152;49.202;18.744;2022-11-18T09:44:55;9.60;;;8.32;;
70588;SDS011;58152;49.202;18.744;2022-11-18T09:47:36;7.63;;;6.80;;
70588;SDS011;58152;49.202;18.744;2022-11-18T09:50:06;8.80;;;6.72;;
70588;SDS011;58152;49.202;18.744;2022-11-18T09:52:43;9.70;;;6.75;;
70588;SDS011;58152;49.202;18.744;2022-11-18T09:55:24;7.40;;;6.28;;
70588;SDS011;58152;49.202;18.744;2022-11-18T09:57:50;9.50;;;6.63;;
70588;SDS011;58152;49.202;18.744;2022-11-18T10:00:21;10.73;;;7.95;;
70588;SDS011;58152;49.202;18.744;2022-11-18T10:05:26;8.55;;;6.90;;
70588;SDS011;58152;49.202;18.744;2022-11-18T10:16:24;5.80;;;4.93;;
70588;SDS011;58152;49.202;18.744;2022-11-18T10:24:17;6.00;;;5.00;;
70588;SDS011;58152;49.202;18.744;2022-11-18T10:26:44;5.28;;;4.72;;
70588;SDS011;58152;49.202;18.744;2022-11-18T10:29:10;5.10;;;4.65;;
70588;SDS011;58152;49.202;18.744;2022-11-18T10:31:44;4.00;;;3.60;;
70588;SDS011;58152;49.202;18.744;2022-11-18T10:34:28;4.85;;;4.35;;
70588;SDS011;58152;49.202;18.744;2022-11-18T10:37:02;5.13;;;4.60;;
70588;SDS011;58152;49.202;18.744;2022-11-18T10:39:30;5.40;;;4.05;;
70588;SDS011;58152;49.202;18.744;2022-11-18T10:42:00;5.35;;;4.82;;
70588;SDS011;58152;49.202;18.744;2022-11-18T10:44:31;5.95;;;4.60;;
70588;SDS011;58152;49.202;18.744;2022-11-18T10:49:41;5.38;;;4.72;;
70588;SDS011;58152;49.202;18.744;2022-11-18T10:52:12;5.25;;;4.70;;
70588;SDS011;58152;49.202;18.744;2022-11-18T10:54:39;6.28;;;4.80;;
70588;SDS011;58152;49.202;18.744;2022-11-18T11:04:55;5.72;;;4.85;;
70588;SDS011;58152;49.202;18.744;2022-11-18T11:15:46;5.65;;;5.07;;
70588;SDS011;58152;49.202;18.744;2022-11-18T11:21:30;6.30;;;5.55;;
70588;SDS011;58152;49.202;18.744;2022-11-18T11:23:55;6.80;;;4.68;;
70588;SDS011;58152;49.202;18.744;2022-11-18T13:33:00;7.90;;;7.07;;
70588;SDS011;58152;49.202;18.744;2022-11-18T13:35:35;9.43;;;7.85;;
70588;SDS011;58152;49.202;18.744;2022-11-18T13:38:31;8.30;;;6.70;;
70588;SDS011;58152;49.202;18.744;2022-11-18T13:41:18;9.43;;;6.95;;
70588;SDS011;58152;49.202;18.744;2022-11-18T14:39:29;8.65;;;7.47;;
70588;SDS011;58152;49.202;18.744;2022-11-18T14:42:01;10.70;;;8.00;;
70588;SDS011;58152;49.202;18.744;2022-11-18T14:44:30;7.80;;;6.90;;
70588;SDS011;58152;49.202;18.744;2022-11-18T14:47:27;8.45;;;7.38;;
70588;SDS011;58152;49.202;18.744;2022-11-18T14:49:57;8.75;;;6.78;;
70588;SDS011;58152;49.202;18.744;2022-11-18T14:55:20;10.80;;;7.38;;
70588;SDS011;58152;49.202;18.744;2022-11-18T14:57:48;10.07;;;7.60;;
70588;SDS011;58152;49.202;18.744;2022-11-18T15:03:39;9.73;;;7.90;;
70588;SDS011;58152;49.202;18.744;2022-11-18T15:06:11;11.48;;;8.00;;
70588;SDS011;58152;49.202;18.744;2022-11-18T15:08:48;9.98;;;7.45;;
70588;SDS011;58152;49.202;18.744;2022-11-18T15:11:26;9.93;;;7.93;;
70588;SDS011;58152;49.202;18.744;2022-11-18T15:14:16;13.55;;;10.30;;
70588;SDS011;58152;49.202;18.744;2022-11-18T15:16:58;11.70;;;8.68;;
70588;SDS011;58152;49.202;18.744;2022-11-18T15:43:14;11.80;;;9.38;;
70588;SDS011;58152;49.202;18.744;2022-11-18T15:52:21;11.10;;;9.18;;
70588;SDS011;58152;49.202;18.744;2022-11-18T15:58:30;12.00;;;9.50;;
70588;SDS011;58152;49.202;18.744;2022-11-18T16:01:09;15.95;;;10.45;;
70588;SDS011;58152;49.202;18.744;2022-11-18T16:07:33;13.93;;;10.77;;
70588;SDS011;58152;49.202;18.744;2022-11-18T16:09:59;12.25;;;8.93;;
70588;SDS011;58152;49.202;18.744;2022-11-18T16:12:43;11.43;;;9.25;;
70588;SDS011;58152;49.202;18.744;2022-11-18T16:15:34;11.75;;;9.32;;
70588;SDS011;58152;49.202;18.744;2022-11-18T16:21:57;10.75;;;8.50;;
70588;SDS011;58152;49.202;18.744;2022-11-18T16:24:28;12.30;;;9.65;;
70588;SDS011;58152;49.202;18.744;2022-11-18T16:27:51;11.73;;;9.70;;
70588;SDS011;58152;49.202;18.744;2022-11-18T16:37:25;14.15;;;9.70;;
70588;SDS011;58152;49.202;18.744;2022-11-18T16:40:10;11.55;;;9.30;;
70588;SDS011;58152;49.202;18.744;2022-11-18T17:24:21;17.23;;;12.77;;
70588;SDS011;58152;49.202;18.744;2022-11-18T17:29:59;16.60;;;11.88;;
70588;SDS011;58152;49.202;18.744;2022-11-18T17:36:17;17.88;;;10.82;;
70588;SDS011;58152;49.202;18.744;2022-11-18T17:38:46;16.25;;;12.23;;
70588;SDS011;58152;49.202;18.744;2022-11-18T17:41:16;15.60;;;10.60;;
70588;SDS011;58152;49.202;18.744;2022-11-18T17:44:05;18.35;;;11.98;;
70588;SDS011;58152;49.202;18.744;2022-11-18T17:46:35;16.90;;;11.45;;
70588;SDS011;58152;49.202;18.744;2022-11-18T17:49:02;16.45;;;11.20;;
70588;SDS011;58152;49.202;18.744;2022-11-18T17:51:31;17.98;;;11.93;;
70588;SDS011;58152;49.202;18.744;2022-11-18T17:53:57;15.70;;;11.45;;
70588;SDS011;58152;49.202;18.744;2022-11-18T17:56:23;16.98;;;11.68;;
70588;SDS011;58152;49.202;18.744;2022-11-18T17:58:49;17.38;;;10.85;;
70588;SDS011;58152;49.202;18.744;2022-11-18T18:04:54;16.33;;;10.70;;
70588;SDS011;58152;49.202;18.744;2022-11-18T18:07:25;14.85;;;11.00;;
70588;SDS011;58152;49.202;18.744;2022-11-18T18:13:00;16.08;;;11.15;;
70588;SDS011;58152;49.202;18.744;2022-11-18T18:25:29;13.95;;;9.13;;
70588;SDS011;58152;49.202;18.744;2022-11-18T18:27:55;15.98;;;9.82;;
70588;SDS011;58152;49.202;18.744;2022-11-18T18:30:42;14.13;;;9.63;;
70588;SDS011;58152;49.202;18.744;2022-11-18T18:39:44;14.55;;;9.85;;
70588;SDS011;58152;49.202;18.744;2022-11-18T18:46:17;16.92;;;10.60;;
70588;SDS011;58152;49.202;18.744;2022-11-18T18:49:03;14.95;;;10.23;;
70588;SDS011;58152;49.202;18.744;2022-11-18T18:51:36;17.75;;;10.63;;
70588;SDS011;58152;49.202;18.744;2022-11-18T18:54:06;15.98;;;11.10;;
70588;SDS011;58152;49.202;18.744;2022-11-18T18:56:35;16.60;;;11.70;;
70588;SDS011;58152;49.202;18.744;2022-11-18T18:59:04;16.75;;;11.35;;
70588;SDS011;58152;49.202;18.744;2022-11-18T19:02:00;16.77;;;11.90;;
70588;SDS011;58152;49.202;18.744;2022-11-18T19:04:28;19.52;;;11.60;;
70588;SDS011;58152;49.202;18.744;2022-11-18T19:07:27;19.63;;;11.93;;
70588;SDS011;58152;49.202;18.744;2022-11-18T19:10:38;18.17;;;11.35;;
70588;SDS011;58152;49.202;18.744;2022-11-18T19:13:09;17.85;;;10.77;;
70588;SDS011;58152;49.202;18.744;2022-11-18T19:15:49;19.25;;;11.95;;
70588;SDS011;58152;49.202;18.744;2022-11-18T19:18:58;16.92;;;11.05;;
70588;SDS011;58152;49.202;18.744;2022-11-18T19:24:26;17.10;;;11.00;;
70588;SDS011;58152;49.202;18.744;2022-11-18T19:26:54;17.42;;;11.85;;
70588;SDS011;58152;49.202;18.744;2022-11-18T19:29:19;17.33;;;11.77;;
70588;SDS011;58152;49.202;18.744;2022-11-18T19:31:49;19.23;;;12.40;;
70588;SDS011;58152;49.202;18.744;2022-11-18T19:34:14;18.77;;;11.52;;
70588;SDS011;58152;49.202;18.744;2022-11-18T19:36:40;17.58;;;11.65;;
70588;SDS011;58152;49.202;18.744;2022-11-18T19:39:05;18.33;;;12.38;;
70588;SDS011;58152;49.202;18.744;2022-11-18T19:41:31;19.98;;;12.73;;
70588;SDS011;58152;49.202;18.744;2022-11-18T19:43:59;19.60;;;12.98;;
70588;SDS011;58152;49.202;18.744;2022-11-18T19:50:08;18.35;;;12.88;;
70588;SDS011;58152;49.202;18.744;2022-11-18T19:52:34;19.52;;;13.13;;
70588;SDS011;58152;49.202;18.744;2022-11-18T19:55:00;21.42;;;12.32;;
70588;SDS011;58152;49.202;18.744;2022-11-18T19:57:28;17.33;;;11.90;;
70588;SDS011;58152;49.202;18.744;2022-11-18T19:59:53;19.15;;;11.82;;
70588;SDS011;58152;49.202;18.744;2022-11-18T20:02:19;20.08;;;11.98;;
70588;SDS011;58152;49.202;18.744;2022-11-18T20:04:44;18.83;;;13.57;;
70588;SDS011;58152;49.202;18.744;2022-11-18T20:07:35;18.48;;;12.07;;
70588;SDS011;58152;49.202;18.744;2022-11-18T20:10:01;20.73;;;12.30;;
70588;SDS011;58152;49.202;18.744;2022-11-18T20:12:34;21.73;;;13.38;;
70588;SDS011;58152;49.202;18.744;2022-11-18T20:15:02;19.65;;;12.25;;
70588;SDS011;58152;49.202;18.744;2022-11-18T20:17:34;18.17;;;12.63;;
70588;SDS011;58152;49.202;18.744;2022-11-18T20:20:07;17.92;;;11.75;;
70588;SDS011;58152;49.202;18.744;2022-11-18T20:22:33;17.95;;;11.25;;
70588;SDS011;58152;49.202;18.744;2022-11-18T20:25:01;16.33;;;11.50;;
70588;SDS011;58152;49.202;18.744;2022-11-18T20:27:30;18.60;;;11.68;;
70588;SDS011;58152;49.202;18.744;2022-11-18T20:29:55;17.15;;;11.43;;
70588;SDS011;58152;49.202;18.744;2022-11-18T20:32:32;19.50;;;11.38;;
70588;SDS011;58152;49.202;18.744;2022-11-18T20:34:58;19.70;;;12.43;;
70588;SDS011;58152;49.202;18.744;2022-11-18T20:40:48;19.88;;;12.35;;
70588;SDS011;58152;49.202;18.744;2022-11-18T20:43:17;21.95;;;13.07;;
70588;SDS011;58152;49.202;18.744;2022-11-18T20:46:05;19.60;;;12.82;;
70588;SDS011;58152;49.202;18.744;2022-11-18T20:48:50;18.75;;;13.00;;
70588;SDS011;58152;49.202;18.744;2022-11-18T20:51:23;23.40;;;14.85;;
70588;SDS011;58152;49.202;18.744;2022-11-18T20:53:57;20.67;;;13.20;;
70588;SDS011;58152;49.202;18.744;2022-11-18T20:56:42;21.83;;;13.88;;
70588;SDS011;58152;49.202;18.744;2022-11-18T20:59:19;23.80;;;15.43;;
70588;SDS011;58152;49.202;18.744;2022-11-18T21:01:44;24.35;;;15.23;;
70588;SDS011;58152;49.202;18.744;2022-11-18T21:04:10;23.30;;;15.85;;